Time;durP1;ratioP1;P1;durP2;ratioP2;P2;SDS_P1;SDS_P2;PMS_P1;PMS_P2;Temp;Humidity;BMP_temperature;BMP_pressure;BME280_temperature;BME280_humidity;BME280_pressure;Samples;Min_cycle;Max_cycle;Signal;HPM_P1;HPM_P2
2022/08/13 00:00:32;;;;;;;1.63;0.88;;;;;;;;;;5032018;28;20411;-86
2022/08/13 00:02:59;;;;;;;1.13;0.70;;;;;;;;;;5031884;28;20732;-86
2022/08/13 00:05:25;;;;;;;0.88;0.80;;;;;;;;;;5031930;28;20379;-86
2022/08/13 00:07:51;;;;;;;2.25;0.80;;;;;;;;;;5014283;28;20882;-86
2022/08/13 00:10:28;;;;;;;1.50;0.70;;;;;;;;;;5031871;28;20411;-86
2022/08/13 00:12:57;;;;;;;1.13;0.80;;;;;;;;;;5014212;28;20809;-86
2022/08/13 00:15:37;;;;;;;1.93;0.90;;;;;;;;;;5031697;28;20868;-86
2022/08/13 00:18:04;;;;;;;1.35;0.80;;;;;;;;;;5031878;28;20403;-86
2022/08/13 00:20:41;;;;;;;1.48;0.80;;;;;;;;;;5014070;28;20955;-86
2022/08/13 00:23:08;;;;;;;1.52;0.80;;;;;;;;;;5024803;28;20422;-87
2022/08/13 00:25:35;;;;;;;2.25;0.85;;;;;;;;;;5016950;28;20456;-87
2022/08/13 00:28:02;;;;;;;1.60;0.80;;;;;;;;;;5022222;28;20496;-86
2022/08/13 00:30:33;;;;;;;1.40;0.82;;;;;;;;;;5030935;28;20922;-86
2022/08/13 00:33:04;;;;;;;0.82;0.80;;;;;;;;;;5029451;28;20883;-86
2022/08/13 00:35:31;;;;;;;1.02;0.80;;;;;;;;;;5034239;28;20414;-86
2022/08/13 00:37:58;;;;;;;0.90;0.80;;;;;;;;;;5033511;28;20884;-87
2022/08/13 00:40:25;;;;;;;0.80;0.75;;;;;;;;;;5034233;28;20474;-86
2022/08/13 00:42:52;;;;;;;1.25;0.98;;;;;;;;;;5035039;28;20463;-87
2022/08/13 00:45:18;;;;;;;1.10;0.80;;;;;;;;;;5034796;28;20848;-86
2022/08/13 00:50:29;;;;;;;1.00;0.80;;;;;;;;;;5035262;28;20432;-86
2022/08/13 00:52:55;;;;;;;1.00;0.85;;;;;;;;;;5035097;28;20849;-87
2022/08/13 00:55:22;;;;;;;1.55;0.80;;;;;;;;;;5035082;28;20852;-86
2022/08/13 00:57:49;;;;;;;1.30;0.90;;;;;;;;;;5035004;28;20446;-86
2022/08/13 01:00:19;;;;;;;1.75;0.93;;;;;;;;;;5035052;28;20380;-86
2022/08/13 01:02:47;;;;;;;1.52;0.80;;;;;;;;;;5035008;28;20461;-86
2022/08/13 01:05:13;;;;;;;1.90;1.00;;;;;;;;;;5034431;28;20802;-86
2022/08/13 01:07:41;;;;;;;1.75;0.90;;;;;;;;;;5034926;28;20389;-86
2022/08/13 01:10:07;;;;;;;1.80;0.90;;;;;;;;;;5034832;28;20387;-86
2022/08/13 01:12:35;;;;;;;1.60;0.80;;;;;;;;;;5034817;28;20783;-86
2022/08/13 01:15:02;;;;;;;1.70;0.90;;;;;;;;;;5034531;28;20387;-86
2022/08/13 01:17:28;;;;;;;1.30;0.90;;;;;;;;;;5034644;28;20407;-87
2022/08/13 01:19:55;;;;;;;1.00;0.90;;;;;;;;;;5026099;28;20443;-86
2022/08/13 01:22:22;;;;;;;1.80;0.80;;;;;;;;;;5017592;28;20422;-85
2022/08/13 01:24:50;;;;;;;1.70;0.90;;;;;;;;;;5015048;28;20467;-86
2022/08/13 01:27:18;;;;;;;2.28;1.00;;;;;;;;;;5020083;28;20795;-86
2022/08/13 01:29:44;;;;;;;1.70;0.90;;;;;;;;;;5015937;28;20493;-86
2022/08/13 01:32:15;;;;;;;1.70;0.90;;;;;;;;;;5014193;28;20375;-86
2022/08/13 01:34:41;;;;;;;1.70;1.05;;;;;;;;;;5016185;28;20369;-87
2022/08/13 01:37:07;;;;;;;0.80;0.70;;;;;;;;;;5017580;28;20385;-87
2022/08/13 01:39:33;;;;;;;1.13;0.90;;;;;;;;;;5015220;28;20408;-86
2022/08/13 01:41:59;;;;;;;1.08;0.90;;;;;;;;;;5015320;28;20381;-86
2022/08/13 01:44:26;;;;;;;0.80;0.80;;;;;;;;;;5014933;28;20380;-86
2022/08/13 01:52:33;;;;;;;1.02;1.00;;;;;;;;;;5033904;28;20383;-86
2022/08/13 01:55:01;;;;;;;0.85;0.82;;;;;;;;;;5032965;28;20379;-86
2022/08/13 01:57:27;;;;;;;2.35;1.00;;;;;;;;;;5033640;28;20379;-86
2022/08/13 01:59:53;;;;;;;0.90;0.80;;;;;;;;;;5033901;28;20390;-86
2022/08/13 02:02:24;;;;;;;1.00;0.90;;;;;;;;;;5033959;28;20375;-86
2022/08/13 02:04:52;;;;;;;1.08;0.85;;;;;;;;;;5033733;28;20398;-86
2022/08/13 02:07:18;;;;;;;0.93;0.93;;;;;;;;;;5033792;28;20457;-86
2022/08/13 02:09:44;;;;;;;2.15;0.80;;;;;;;;;;5033663;28;20391;-87
2022/08/13 02:12:13;;;;;;;1.00;0.90;;;;;;;;;;5033677;28;20387;-86
2022/08/13 02:14:42;;;;;;;2.65;0.90;;;;;;;;;;5015805;28;20881;-86
2022/08/13 02:17:24;;;;;;;1.00;0.90;;;;;;;;;;5027580;28;20414;-87
2022/08/13 02:19:52;;;;;;;1.60;0.90;;;;;;;;;;5030778;28;20605;-86
2022/08/13 02:22:18;;;;;;;1.70;0.90;;;;;;;;;;5031341;28;20375;-86
2022/08/13 02:24:52;;;;;;;1.08;0.98;;;;;;;;;;5031600;28;20406;-85
2022/08/13 02:27:20;;;;;;;2.53;1.10;;;;;;;;;;5033134;28;20904;-86
2022/08/13 02:29:46;;;;;;;0.90;0.90;;;;;;;;;;5015540;28;20427;-86
2022/08/13 02:32:12;;;;;;;1.15;0.98;;;;;;;;;;5032403;28;20384;-87
2022/08/13 02:34:39;;;;;;;0.90;0.77;;;;;;;;;;5032490;28;20387;-86
2022/08/13 02:37:05;;;;;;;1.50;1.00;;;;;;;;;;5033141;28;20386;-86
2022/08/13 02:39:31;;;;;;;2.30;1.10;;;;;;;;;;5033320;28;20473;-86
2022/08/13 02:41:57;;;;;;;1.45;0.88;;;;;;;;;;5032982;28;20391;-85
2022/08/13 02:44:25;;;;;;;1.25;0.93;;;;;;;;;;5032988;28;20425;-85
2022/08/13 02:46:51;;;;;;;1.92;1.10;;;;;;;;;;5033014;28;20458;-86
2022/08/13 02:49:21;;;;;;;1.80;0.90;;;;;;;;;;5033034;28;20776;-85
2022/08/13 02:51:47;;;;;;;1.73;1.00;;;;;;;;;;5015292;28;20399;-85
2022/08/13 02:54:16;;;;;;;1.48;1.10;;;;;;;;;;5032856;28;20429;-85
2022/08/13 02:56:44;;;;;;;1.70;1.00;;;;;;;;;;5031963;28;20915;-85
2022/08/13 02:59:10;;;;;;;2.10;0.90;;;;;;;;;;5032880;28;20909;-86
2022/08/13 03:01:40;;;;;;;1.63;1.17;;;;;;;;;;5032417;28;20474;-86
2022/08/13 03:04:07;;;;;;;1.10;0.80;;;;;;;;;;5032764;28;20375;-86
2022/08/13 03:06:33;;;;;;;2.17;1.10;;;;;;;;;;5032607;28;20426;-86
2022/08/13 03:09:01;;;;;;;1.30;1.20;;;;;;;;;;5032685;28;20378;-86
2022/08/13 03:11:28;;;;;;;1.95;1.13;;;;;;;;;;5014656;28;20387;-85
2022/08/13 03:13:59;;;;;;;1.10;1.00;;;;;;;;;;5014727;28;20418;-85
2022/08/13 03:16:26;;;;;;;1.00;0.90;;;;;;;;;;5014769;28;20398;-85
2022/08/13 03:18:53;;;;;;;1.30;1.10;;;;;;;;;;5032380;28;20764;-86
2022/08/13 03:21:20;;;;;;;1.10;1.00;;;;;;;;;;5032486;28;20415;-86
2022/08/13 03:23:46;;;;;;;1.65;1.10;;;;;;;;;;5032567;28;20406;-85
2022/08/13 03:26:13;;;;;;;1.02;1.00;;;;;;;;;;5032295;28;20403;-85
2022/08/13 03:28:39;;;;;;;1.58;1.13;;;;;;;;;;5014559;28;20470;-86
2022/08/13 03:31:06;;;;;;;1.13;0.93;;;;;;;;;;5032437;28;20379;-86
2022/08/13 03:33:32;;;;;;;1.17;1.08;;;;;;;;;;5014667;28;20383;-86
2022/08/13 03:35:59;;;;;;;1.40;1.10;;;;;;;;;;5032103;28;20444;-85
2022/08/13 03:38:25;;;;;;;1.35;1.10;;;;;;;;;;5032236;28;20433;-86
2022/08/13 03:43:35;;;;;;;1.60;1.10;;;;;;;;;;5032223;28;20421;-85
2022/08/13 03:46:01;;;;;;;1.20;1.10;;;;;;;;;;5032043;28;20385;-87
2022/08/13 03:48:27;;;;;;;1.25;1.00;;;;;;;;;;5032139;28;20415;-86
2022/08/13 03:50:55;;;;;;;1.27;1.20;;;;;;;;;;5014169;28;20418;-86
2022/08/13 03:53:21;;;;;;;1.50;1.00;;;;;;;;;;5031953;28;20856;-85
2022/08/13 03:55:48;;;;;;;1.58;1.10;;;;;;;;;;5032396;28;20425;-85
2022/08/13 03:58:15;;;;;;;1.20;1.10;;;;;;;;;;5028082;28;20426;-86
2022/08/13 04:00:49;;;;;;;1.30;1.10;;;;;;;;;;5031903;28;20384;-85
2022/08/13 04:03:20;;;;;;;1.80;1.23;;;;;;;;;;5031923;28;20395;-85
2022/08/13 04:05:47;;;;;;;2.20;1.10;;;;;;;;;;5031854;28;20379;-85
2022/08/13 04:08:13;;;;;;;1.23;1.13;;;;;;;;;;5032177;28;20478;-86
2022/08/13 04:10:40;;;;;;;1.20;1.02;;;;;;;;;;5035965;28;20379;-85
2022/08/13 04:13:11;;;;;;;1.92;1.20;;;;;;;;;;5035912;28;20394;-86
2022/08/13 04:15:37;;;;;;;1.88;1.15;;;;;;;;;;5036189;28;20844;-84
2022/08/13 04:18:03;;;;;;;1.70;1.27;;;;;;;;;;5018231;28;20418;-86
2022/08/13 04:20:30;;;;;;;3.10;1.10;;;;;;;;;;5035730;28;20848;-86
2022/08/13 04:22:56;;;;;;;2.95;1.33;;;;;;;;;;5032464;28;20390;-85
2022/08/13 04:25:23;;;;;;;1.27;1.10;;;;;;;;;;5026703;28;20403;-86
2022/08/13 04:27:49;;;;;;;1.50;1.20;;;;;;;;;;5031339;28;20436;-84
2022/08/13 04:30:20;;;;;;;2.63;1.70;;;;;;;;;;5035378;28;20395;-85
2022/08/13 04:32:47;;;;;;;1.80;1.10;;;;;;;;;;5035699;28;20383;-84
2022/08/13 04:35:13;;;;;;;1.35;1.20;;;;;;;;;;5035419;28;20383;-85
2022/08/13 04:37:39;;;;;;;1.33;1.23;;;;;;;;;;5035444;28;20396;-85
2022/08/13 04:40:06;;;;;;;1.40;1.30;;;;;;;;;;5035444;28;20814;-85
2022/08/13 04:42:49;;;;;;;1.70;1.30;;;;;;;;;;5035335;28;20383;-85
2022/08/13 04:45:15;;;;;;;1.40;1.30;;;;;;;;;;5035321;28;20383;-85
2022/08/13 04:47:42;;;;;;;1.50;1.35;;;;;;;;;;5017616;28;20745;-84
2022/08/13 04:50:09;;;;;;;2.33;1.57;;;;;;;;;;5035299;28;20433;-85
2022/08/13 04:52:35;;;;;;;2.00;1.30;;;;;;;;;;5035247;28;20791;-84
2022/08/13 04:55:02;;;;;;;1.40;1.30;;;;;;;;;;5034758;28;20379;-84
2022/08/13 04:57:29;;;;;;;1.40;1.30;;;;;;;;;;5030598;28;20391;-85
2022/08/13 04:59:55;;;;;;;1.52;1.42;;;;;;;;;;5030671;28;20418;-85
2022/08/13 05:02:21;;;;;;;1.30;1.20;;;;;;;;;;5032011;28;20395;-84
2022/08/13 05:04:48;;;;;;;1.60;1.20;;;;;;;;;;5032263;28;20384;-85
2022/08/13 05:07:15;;;;;;;1.63;1.20;;;;;;;;;;5033650;28;20380;-84
2022/08/13 05:09:41;;;;;;;2.05;1.55;;;;;;;;;;5033433;28;20399;-85
2022/08/13 05:12:08;;;;;;;2.92;1.40;;;;;;;;;;5016463;28;20744;-85
2022/08/13 05:14:35;;;;;;;1.50;1.40;;;;;;;;;;5033237;28;20383;-85
2022/08/13 05:17:03;;;;;;;1.65;1.20;;;;;;;;;;5016107;28;20383;-85
2022/08/13 05:19:29;;;;;;;1.30;1.20;;;;;;;;;;5033416;28;20494;-85
2022/08/13 05:21:55;;;;;;;1.50;1.20;;;;;;;;;;5033898;28;20430;-85
2022/08/13 05:24:22;;;;;;;1.40;1.30;;;;;;;;;;5032898;28;20379;-85
2022/08/13 05:26:48;;;;;;;2.05;1.40;;;;;;;;;;5033612;28;20399;-86
2022/08/13 05:29:14;;;;;;;1.83;1.40;;;;;;;;;;5034492;28;20813;-85
2022/08/13 05:31:41;;;;;;;1.63;1.50;;;;;;;;;;5033589;28;20902;-85
2022/08/13 05:34:07;;;;;;;1.60;1.30;;;;;;;;;;5033404;28;20748;-85
2022/08/13 05:36:33;;;;;;;1.88;1.48;;;;;;;;;;5034095;28;20885;-85
2022/08/13 05:38:59;;;;;;;1.65;1.48;;;;;;;;;;5033885;28;20437;-85
2022/08/13 05:41:27;;;;;;;1.50;1.40;;;;;;;;;;5034124;28;20387;-84
2022/08/13 05:43:53;;;;;;;1.65;1.55;;;;;;;;;;5034103;28;20379;-85
2022/08/13 05:46:20;;;;;;;1.30;1.20;;;;;;;;;;5034134;28;20374;-85
2022/08/13 05:48:58;;;;;;;1.42;1.33;;;;;;;;;;5033986;28;20387;-85
2022/08/13 05:51:25;;;;;;;2.80;1.50;;;;;;;;;;5033927;28;20466;-85
2022/08/13 05:53:54;;;;;;;2.05;1.60;;;;;;;;;;5032970;28;20383;-86
2022/08/13 05:56:21;;;;;;;3.43;1.67;;;;;;;;;;5032590;28;20387;-85
2022/08/13 05:58:48;;;;;;;2.67;1.80;;;;;;;;;;5033929;28;20442;-86
2022/08/13 06:04:00;;;;;;;3.05;1.30;;;;;;;;;;5034234;28;20394;-86
2022/08/13 06:06:28;;;;;;;1.70;1.60;;;;;;;;;;5033791;28;20383;-86
2022/08/13 06:08:56;;;;;;;1.88;1.58;;;;;;;;;;5033964;28;20391;-86
2022/08/13 06:11:22;;;;;;;1.70;1.60;;;;;;;;;;5033355;28;20391;-88
2022/08/13 06:13:49;;;;;;;1.55;1.45;;;;;;;;;;5033198;28;20394;-87
2022/08/13 06:16:20;;;;;;;1.88;1.67;;;;;;;;;;5032738;28;20928;-83
2022/08/13 06:18:48;;;;;;;1.88;1.50;;;;;;;;;;5033224;28;20406;-84
2022/08/13 06:21:16;;;;;;;2.42;1.60;;;;;;;;;;5033755;28;20462;-84
2022/08/13 06:23:44;;;;;;;1.60;1.50;;;;;;;;;;5033438;28;20394;-84
2022/08/13 06:26:11;;;;;;;1.90;1.70;;;;;;;;;;5032401;28;20484;-85
2022/08/13 06:28:39;;;;;;;2.00;1.50;;;;;;;;;;5032831;28;20486;-85
2022/08/13 06:31:06;;;;;;;1.67;1.58;;;;;;;;;;5031216;28;20477;-85
2022/08/13 06:33:34;;;;;;;1.55;1.45;;;;;;;;;;5032009;28;20379;-85
2022/08/13 06:36:05;;;;;;;2.10;1.42;;;;;;;;;;5033232;28;20395;-86
2022/08/13 06:38:31;;;;;;;1.70;1.45;;;;;;;;;;5032672;28;20410;-86
2022/08/13 06:41:00;;;;;;;1.70;1.60;;;;;;;;;;5032682;28;20463;-86
2022/08/13 06:43:31;;;;;;;3.30;1.70;;;;;;;;;;5033584;28;20402;-85
2022/08/13 06:45:59;;;;;;;1.90;1.80;;;;;;;;;;5032993;28;20845;-85
2022/08/13 06:48:27;;;;;;;1.80;1.70;;;;;;;;;;5033553;28;20387;-85
2022/08/13 06:50:53;;;;;;;2.30;1.92;;;;;;;;;;5033048;28;20897;-86
2022/08/13 06:53:19;;;;;;;1.63;1.52;;;;;;;;;;5032550;28;20470;-86
2022/08/13 06:55:48;;;;;;;2.53;1.77;;;;;;;;;;5032882;28;20383;-87
2022/08/13 06:58:14;;;;;;;1.90;1.70;;;;;;;;;;5032748;28;20414;-86
2022/08/13 07:00:41;;;;;;;1.75;1.65;;;;;;;;;;5031172;28;20883;-87
2022/08/13 07:03:07;;;;;;;1.90;1.58;;;;;;;;;;5028418;28;20880;-91
2022/08/13 07:05:38;;;;;;;2.38;1.35;;;;;;;;;;5031932;28;20387;-92
2022/08/13 07:08:07;;;;;;;1.60;1.30;;;;;;;;;;5032782;28;20379;-91
2022/08/13 07:10:34;;;;;;;2.10;1.45;;;;;;;;;;5032673;28;20383;-84
2022/08/13 07:13:01;;;;;;;1.60;1.50;;;;;;;;;;5014800;28;20852;-85
2022/08/13 07:15:27;;;;;;;1.57;1.47;;;;;;;;;;5031938;28;20451;-86
2022/08/13 07:17:55;;;;;;;1.27;1.17;;;;;;;;;;5014717;28;20419;-86
2022/08/13 07:20:21;;;;;;;1.70;1.40;;;;;;;;;;5032633;28;20387;-88
2022/08/13 07:22:48;;;;;;;1.50;1.40;;;;;;;;;;5032624;28;20387;-85
2022/08/13 07:25:14;;;;;;;1.95;1.60;;;;;;;;;;5032151;28;20398;-86
2022/08/13 07:27:41;;;;;;;1.30;1.20;;;;;;;;;;5032311;28;20399;-87
2022/08/13 07:30:07;;;;;;;1.45;1.30;;;;;;;;;;5032398;28;20892;-86
2022/08/13 07:32:37;;;;;;;1.50;1.40;;;;;;;;;;5032361;28;20379;-85
2022/08/13 07:35:04;;;;;;;1.67;1.20;;;;;;;;;;5032270;28;20386;-85
2022/08/13 07:37:30;;;;;;;1.60;1.33;;;;;;;;;;5032232;28;20859;-85
2022/08/13 07:39:59;;;;;;;1.70;1.30;;;;;;;;;;5032215;28;20409;-84
2022/08/13 07:42:27;;;;;;;2.15;1.30;;;;;;;;;;5032083;28;20383;-83
2022/08/13 07:44:53;;;;;;;2.10;1.15;;;;;;;;;;5032059;28;20379;-85
2022/08/13 07:47:21;;;;;;;1.95;1.30;;;;;;;;;;5030840;28;20383;-84
2022/08/13 07:49:47;;;;;;;1.13;1.02;;;;;;;;;;5020349;28;20441;-83
2022/08/13 07:52:14;;;;;;;1.45;1.27;;;;;;;;;;5022440;28;20410;-84
2022/08/13 07:54:44;;;;;;;1.13;1.10;;;;;;;;;;5031921;28;20379;-85
2022/08/13 07:57:13;;;;;;;1.80;1.00;;;;;;;;;;5030561;28;20754;-84
2022/08/13 07:59:39;;;;;;;3.35;1.40;;;;;;;;;;5028969;28;20418;-84
2022/08/13 08:02:09;;;;;;;1.98;1.60;;;;;;;;;;5024953;28;20395;-85
2022/08/13 08:04:37;;;;;;;1.17;0.90;;;;;;;;;;5030530;28;20386;-84
2022/08/13 08:07:03;;;;;;;2.17;1.43;;;;;;;;;;5030154;28;20516;-84
2022/08/13 08:09:30;;;;;;;1.60;1.10;;;;;;;;;;5031760;28;20714;-85
2022/08/13 08:14:44;;;;;;;1.27;1.10;;;;;;;;;;5025485;28;20438;-84
2022/08/13 08:17:11;;;;;;;2.35;1.23;;;;;;;;;;5031861;28;20375;-85
2022/08/13 08:19:44;;;;;;;4.63;2.15;;;;;;;;;;5031056;28;20472;-84
2022/08/13 08:22:13;;;;;;;1.85;1.55;;;;;;;;;;5030985;28;20383;-85
2022/08/13 08:24:40;;;;;;;1.13;1.00;;;;;;;;;;5031137;28;20387;-85
2022/08/13 08:27:09;;;;;;;2.77;1.10;;;;;;;;;;5032063;28;20437;-84
2022/08/13 08:29:37;;;;;;;1.15;1.05;;;;;;;;;;5031705;28;20390;-83
2022/08/13 08:32:05;;;;;;;1.67;1.10;;;;;;;;;;5031680;28;20470;-81
2022/08/13 08:34:31;;;;;;;2.03;1.20;;;;;;;;;;5031847;28;20441;-85
2022/08/13 08:36:58;;;;;;;1.90;1.00;;;;;;;;;;5031671;28;20478;-85
2022/08/13 08:42:52;;;;;;;26.13;3.33;;;;;;;;;;5031711;28;20378;-85
2022/08/13 08:45:00;;;;;;;1.30;1.00;;;;;;;;;;5020907;28;20741;-86
2022/08/13 08:47:36;;;;;;;1.25;1.05;;;;;;;;;;5031617;28;20383;-85
2022/08/13 08:50:05;;;;;;;1.45;1.13;;;;;;;;;;5031762;28;20375;-84
2022/08/13 08:55:16;;;;;;;1.30;1.02;;;;;;;;;;5033361;28;20383;-85
2022/08/13 08:57:44;;;;;;;1.70;1.10;;;;;;;;;;5035242;28;20388;-86
2022/08/13 09:00:19;;;;;;;2.00;1.03;;;;;;;;;;5035001;28;20924;-85
2022/08/13 09:02:48;;;;;;;1.75;1.23;;;;;;;;;;5019973;28;20403;-85
2022/08/13 09:05:16;;;;;;;1.20;1.10;;;;;;;;;;5034889;28;20379;-84
2022/08/13 09:07:45;;;;;;;1.85;1.10;;;;;;;;;;5034592;28;20406;-84
2022/08/13 09:10:12;;;;;;;1.50;1.00;;;;;;;;;;5034992;28;20458;-85
2022/08/13 09:12:40;;;;;;;1.20;1.10;;;;;;;;;;5034852;28;20470;-84
2022/08/13 09:15:07;;;;;;;1.10;1.00;;;;;;;;;;5035008;28;20466;-85
2022/08/13 09:17:34;;;;;;;1.38;1.00;;;;;;;;;;5030979;28;20382;-84
2022/08/13 09:20:01;;;;;;;1.63;0.85;;;;;;;;;;5034710;28;20395;-85
2022/08/13 09:22:27;;;;;;;1.17;1.02;;;;;;;;;;5037254;28;20387;-86
2022/08/13 09:24:58;;;;;;;1.80;1.10;;;;;;;;;;5034588;28;20488;-85
2022/08/13 09:27:26;;;;;;;2.60;1.15;;;;;;;;;;5034349;28;20473;-85
2022/08/13 09:29:52;;;;;;;1.33;1.00;;;;;;;;;;5027530;28;20770;-86
2022/08/13 09:32:18;;;;;;;3.38;1.20;;;;;;;;;;5032592;28;20430;-86
2022/08/13 09:34:44;;;;;;;1.25;1.00;;;;;;;;;;5034439;28;20389;-85
2022/08/13 09:37:11;;;;;;;1.58;1.00;;;;;;;;;;5034433;28;20446;-85
2022/08/13 09:39:42;;;;;;;3.00;1.00;;;;;;;;;;5034344;28;20502;-84
2022/08/13 09:42:12;;;;;;;1.48;1.00;;;;;;;;;;5034524;28;20474;-85
2022/08/13 09:44:41;;;;;;;3.63;1.10;;;;;;;;;;5034109;28;20383;-86
2022/08/13 09:47:10;;;;;;;2.13;1.10;;;;;;;;;;5034206;28;20466;-87
2022/08/13 09:49:36;;;;;;;2.55;1.00;;;;;;;;;;5034123;28;20379;-86
2022/08/13 09:52:02;;;;;;;0.93;0.90;;;;;;;;;;5033907;28;20408;-86
2022/08/13 09:54:28;;;;;;;0.80;0.80;;;;;;;;;;5015206;28;20872;-85
2022/08/13 09:56:58;;;;;;;1.27;1.00;;;;;;;;;;5025757;28;20395;-86
2022/08/13 09:59:24;;;;;;;1.90;1.00;;;;;;;;;;5032578;28;20912;-86
2022/08/13 10:01:55;;;;;;;1.40;0.90;;;;;;;;;;5032394;28;20387;-85
2022/08/13 10:04:21;;;;;;;0.90;0.90;;;;;;;;;;5032086;28;20849;-85
2022/08/13 10:06:47;;;;;;;1.17;1.08;;;;;;;;;;5031210;28;20474;-83
2022/08/13 10:09:14;;;;;;;1.15;0.82;;;;;;;;;;5033773;28;20390;-86
2022/08/13 10:11:40;;;;;;;1.30;0.80;;;;;;;;;;5033281;28;20386;-86
2022/08/13 10:14:06;;;;;;;1.00;0.90;;;;;;;;;;5033636;28;20387;-87
2022/08/13 10:16:34;;;;;;;2.03;0.90;;;;;;;;;;5032602;28;20434;-88
2022/08/13 10:19:03;;;;;;;1.13;1.00;;;;;;;;;;5031934;28;20545;-90
2022/08/13 10:21:29;;;;;;;1.30;0.75;;;;;;;;;;5031887;28;20421;-91
2022/08/13 10:23:56;;;;;;;1.73;0.90;;;;;;;;;;5033225;28;20386;-86
2022/08/13 10:26:22;;;;;;;2.10;0.80;;;;;;;;;;5033223;28;20913;-88
2022/08/13 10:28:48;;;;;;;0.80;0.73;;;;;;;;;;5033375;28;20466;-91
2022/08/13 10:31:14;;;;;;;0.60;0.60;;;;;;;;;;5030892;28;20395;-85
2022/08/13 10:33:40;;;;;;;0.70;0.70;;;;;;;;;;5033334;28;20474;-88
2022/08/13 10:36:08;;;;;;;0.85;0.70;;;;;;;;;;5032994;28;20383;-88
2022/08/13 10:38:34;;;;;;;1.90;0.82;;;;;;;;;;5033155;28;20429;-87
2022/08/13 10:41:04;;;;;;;1.45;0.77;;;;;;;;;;5033156;28;20379;-88
2022/08/13 10:43:31;;;;;;;0.68;0.65;;;;;;;;;;5033423;28;20387;-88
2022/08/13 10:45:59;;;;;;;1.30;0.80;;;;;;;;;;5032737;28;20756;-89
2022/08/13 10:48:25;;;;;;;1.90;0.85;;;;;;;;;;5033093;28;20395;-88
2022/08/13 10:50:52;;;;;;;0.90;0.80;;;;;;;;;;5033115;28;20910;-87
2022/08/13 10:56:04;;;;;;;1.00;0.90;;;;;;;;;;5031303;28;20429;-87
2022/08/13 10:58:30;;;;;;;1.23;0.80;;;;;;;;;;5024159;28;20839;-88
2022/08/13 11:01:01;;;;;;;0.77;0.77;;;;;;;;;;5017910;28;20391;-88
2022/08/13 11:03:27;;;;;;;0.80;0.80;;;;;;;;;;5016401;28;20379;-86
2022/08/13 11:05:53;;;;;;;1.40;1.00;;;;;;;;;;5015665;28;20508;-88
2022/08/13 11:08:19;;;;;;;0.80;0.80;;;;;;;;;;5017221;28;20412;-87
2022/08/13 11:10:45;;;;;;;1.00;0.90;;;;;;;;;;5021507;28;20469;-88
2022/08/13 11:13:11;;;;;;;0.82;0.80;;;;;;;;;;5030065;28;20397;-90
2022/08/13 11:15:37;;;;;;;2.42;1.00;;;;;;;;;;5013104;28;20407;-89
2022/08/13 11:18:05;;;;;;;2.65;0.90;;;;;;;;;;5032247;28;20407;-87
2022/08/13 11:20:40;;;;;;;1.35;0.90;;;;;;;;;;5032406;28;20394;-82
2022/08/13 11:23:07;;;;;;;1.13;0.75;;;;;;;;;;5029064;28;20401;-88
2022/08/13 11:25:33;;;;;;;0.90;0.90;;;;;;;;;;5029516;28;20399;-87
2022/08/13 11:27:59;;;;;;;2.30;1.10;;;;;;;;;;5026103;28;20375;-87
2022/08/13 11:30:25;;;;;;;1.13;0.70;;;;;;;;;;5032305;28;20429;-87
2022/08/13 11:32:51;;;;;;;0.80;0.80;;;;;;;;;;5032380;28;20382;-87
2022/08/13 11:35:17;;;;;;;0.70;0.70;;;;;;;;;;5032249;28;20383;-87
2022/08/13 11:37:43;;;;;;;0.80;0.80;;;;;;;;;;5032236;28;20796;-88
2022/08/13 11:40:09;;;;;;;1.08;0.90;;;;;;;;;;5032280;28;20414;-91
2022/08/13 11:42:35;;;;;;;1.40;0.80;;;;;;;;;;5032101;28;20414;-88
2022/08/13 11:45:01;;;;;;;0.60;0.60;;;;;;;;;;5032298;28;20383;-88
2022/08/13 11:47:27;;;;;;;1.50;0.75;;;;;;;;;;5032305;28;20387;-89
2022/08/13 11:49:53;;;;;;;0.88;0.70;;;;;;;;;;5032263;28;20395;-90
2022/08/13 11:52:19;;;;;;;1.33;0.90;;;;;;;;;;5032207;28;20438;-90
2022/08/13 11:54:45;;;;;;;0.90;0.70;;;;;;;;;;5032033;28;20405;-89
2022/08/13 11:57:11;;;;;;;0.95;0.70;;;;;;;;;;5032167;28;20880;-90
2022/08/13 11:59:37;;;;;;;0.70;0.70;;;;;;;;;;5031946;28;20450;-88
2022/08/13 12:02:03;;;;;;;1.15;0.80;;;;;;;;;;5032114;28;20906;-88
2022/08/13 12:04:29;;;;;;;1.35;0.70;;;;;;;;;;5032287;28;20379;-87
2022/08/13 12:06:55;;;;;;;0.80;0.80;;;;;;;;;;5032039;28;20429;-89
2022/08/13 12:09:21;;;;;;;0.60;0.60;;;;;;;;;;5032088;28;20390;-87
2022/08/13 12:11:48;;;;;;;0.82;0.57;;;;;;;;;;5031978;28;20942;-88
2022/08/13 12:14:13;;;;;;;0.80;0.77;;;;;;;;;;5032150;28;20395;-87
2022/08/13 12:16:39;;;;;;;1.77;0.70;;;;;;;;;;5031892;28;20379;-91
2022/08/13 12:19:05;;;;;;;1.10;0.70;;;;;;;;;;5032367;28;20489;-89
2022/08/13 12:21:33;;;;;;;0.75;0.75;;;;;;;;;;5031502;28;20466;-86
2022/08/13 12:23:59;;;;;;;1.15;1.05;;;;;;;;;;5031757;28;20449;-87
2022/08/13 12:26:25;;;;;;;1.20;1.00;;;;;;;;;;5031914;28;20947;-88
2022/08/13 12:28:51;;;;;;;0.73;0.70;;;;;;;;;;5031791;28;20482;-89
2022/08/13 12:31:18;;;;;;;1.45;0.80;;;;;;;;;;5035470;28;20470;-89
2022/08/13 12:33:44;;;;;;;1.27;0.73;;;;;;;;;;5035460;28;20375;-91
2022/08/13 12:36:12;;;;;;;1.17;1.00;;;;;;;;;;5035663;28;20883;-91
2022/08/13 12:38:38;;;;;;;1.52;0.80;;;;;;;;;;5035453;28;20955;-87
2022/08/13 12:41:04;;;;;;;1.02;0.80;;;;;;;;;;5035672;28;20454;-90
2022/08/13 12:43:30;;;;;;;1.50;0.88;;;;;;;;;;5035479;28;20411;-90
2022/08/13 12:45:57;;;;;;;0.80;0.80;;;;;;;;;;5035343;28;20375;-89
2022/08/13 12:48:28;;;;;;;0.68;0.68;;;;;;;;;;5035523;28;20481;-88
2022/08/13 12:50:54;;;;;;;1.60;0.80;;;;;;;;;;5035397;28;20379;-89
2022/08/13 12:53:20;;;;;;;1.88;0.77;;;;;;;;;;5035264;28;20790;-84
2022/08/13 12:55:46;;;;;;;1.08;0.77;;;;;;;;;;5035299;28;20391;-87
2022/08/13 12:58:16;;;;;;;0.65;0.65;;;;;;;;;;5035109;28;20443;-88
2022/08/13 13:00:43;;;;;;;1.35;0.60;;;;;;;;;;5035254;28;20499;-87
2022/08/13 13:03:10;;;;;;;2.80;0.80;;;;;;;;;;5035206;28;20371;-89
2022/08/13 13:05:36;;;;;;;2.47;0.90;;;;;;;;;;5035114;28;20466;-88
2022/08/13 13:08:13;;;;;;;0.90;0.80;;;;;;;;;;5034998;28;20427;-88
2022/08/13 13:10:39;;;;;;;1.13;0.80;;;;;;;;;;5017015;28;20387;-86
2022/08/13 13:13:05;;;;;;;0.70;0.70;;;;;;;;;;5034733;28;20895;-87
2022/08/13 13:15:31;;;;;;;1.52;0.65;;;;;;;;;;5017075;28;20408;-88
2022/08/13 13:17:57;;;;;;;1.50;0.80;;;;;;;;;;5034722;28;20470;-88
2022/08/13 13:20:23;;;;;;;0.70;0.70;;;;;;;;;;5034762;28;20383;-89
2022/08/13 13:22:49;;;;;;;3.05;0.88;;;;;;;;;;5034797;28;20379;-89
2022/08/13 13:25:15;;;;;;;0.80;0.80;;;;;;;;;;5034424;28;20800;-89
2022/08/13 13:27:41;;;;;;;0.77;0.77;;;;;;;;;;5016788;28;20475;-89
2022/08/13 13:30:09;;;;;;;1.33;0.70;;;;;;;;;;5034540;28;20391;-89
2022/08/13 13:32:35;;;;;;;1.23;0.82;;;;;;;;;;5034775;28;20441;-88
2022/08/13 13:35:04;;;;;;;1.13;0.70;;;;;;;;;;5034532;28;20375;-89
2022/08/13 13:37:40;;;;;;;2.17;0.90;;;;;;;;;;5034434;28;20868;-88
2022/08/13 13:40:07;;;;;;;1.55;0.60;;;;;;;;;;5034452;28;20476;-89
2022/08/13 13:42:33;;;;;;;2.35;0.88;;;;;;;;;;5034308;28;20371;-87
2022/08/13 13:44:59;;;;;;;1.05;0.70;;;;;;;;;;5034338;28;20458;-86
2022/08/13 13:47:25;;;;;;;2.38;0.80;;;;;;;;;;5034433;28;20474;-86
2022/08/13 13:49:51;;;;;;;1.30;0.95;;;;;;;;;;5034268;28;20383;-88
2022/08/13 13:52:17;;;;;;;1.08;0.55;;;;;;;;;;5034426;28;20394;-89
2022/08/13 13:54:44;;;;;;;2.05;0.85;;;;;;;;;;5034108;28;20382;-88
2022/08/13 13:57:10;;;;;;;2.30;0.90;;;;;;;;;;5034202;28;20405;-88
2022/08/13 13:59:36;;;;;;;1.10;0.68;;;;;;;;;;5034012;28;20406;-88
2022/08/13 14:02:02;;;;;;;0.88;0.85;;;;;;;;;;5034056;28;20402;-86
2022/08/13 14:04:28;;;;;;;1.13;0.75;;;;;;;;;;5033978;28;20375;-88
2022/08/13 14:07:02;;;;;;;1.60;0.90;;;;;;;;;;5034503;28;20721;-88
2022/08/13 14:09:28;;;;;;;1.02;0.80;;;;;;;;;;5034493;28;20410;-89
2022/08/13 14:11:55;;;;;;;0.68;0.68;;;;;;;;;;5034230;28;20393;-88
2022/08/13 14:14:21;;;;;;;1.67;0.70;;;;;;;;;;5033709;28;20379;-88
2022/08/13 14:16:48;;;;;;;0.98;0.77;;;;;;;;;;5016016;28;20768;-88
2022/08/13 14:19:15;;;;;;;1.02;0.75;;;;;;;;;;5033770;28;20446;-88
2022/08/13 14:21:42;;;;;;;1.27;1.00;;;;;;;;;;5033581;28;20375;-88
2022/08/13 14:24:08;;;;;;;0.73;0.73;;;;;;;;;;5033415;28;20386;-87
2022/08/13 14:26:34;;;;;;;1.17;1.00;;;;;;;;;;5033712;28;20394;-89
2022/08/13 14:29:01;;;;;;;1.08;0.70;;;;;;;;;;5032972;28;20390;-88
2022/08/13 14:31:28;;;;;;;0.65;0.60;;;;;;;;;;5033662;28;20395;-86
2022/08/13 14:33:54;;;;;;;2.40;0.70;;;;;;;;;;5033468;28;20405;-88
2022/08/13 14:36:22;;;;;;;0.88;0.57;;;;;;;;;;5033739;28;20805;-88
2022/08/13 14:38:48;;;;;;;1.20;0.93;;;;;;;;;;5033257;28;20486;-88
2022/08/13 14:41:14;;;;;;;1.00;0.80;;;;;;;;;;5033297;28;20475;-88
2022/08/13 14:43:40;;;;;;;1.00;0.70;;;;;;;;;;5015452;28;20451;-88
2022/08/13 14:46:08;;;;;;;0.90;0.80;;;;;;;;;;5033080;28;20495;-87
2022/08/13 14:48:34;;;;;;;1.95;0.80;;;;;;;;;;5033179;28;20470;-87
2022/08/13 14:51:01;;;;;;;1.05;0.70;;;;;;;;;;5033355;28;20401;-88
2022/08/13 14:53:28;;;;;;;1.50;0.80;;;;;;;;;;5032505;28;20470;-87
2022/08/13 14:55:58;;;;;;;1.23;0.50;;;;;;;;;;5033272;28;20466;-87
2022/08/13 14:58:25;;;;;;;0.60;0.60;;;;;;;;;;5032890;28;20912;-88
2022/08/13 15:00:54;;;;;;;0.98;0.75;;;;;;;;;;5032893;28;20383;-87
2022/08/13 15:03:20;;;;;;;1.20;0.70;;;;;;;;;;5032601;28;20371;-84
2022/08/13 15:05:48;;;;;;;1.30;0.70;;;;;;;;;;5032830;28;20479;-88
2022/08/13 15:08:15;;;;;;;0.75;0.60;;;;;;;;;;5032844;28;20391;-91